createdAt,value
2022-10-02T00:01:27.289Z,100.00
2022-10-02T00:03:57.579Z,100.00
2022-10-02T00:06:27.497Z,100.00
2022-10-02T00:08:59.855Z,99.95
2022-10-02T00:11:29.596Z,100.00
2022-10-02T00:13:59.236Z,99.44
2022-10-02T00:16:33.628Z,98.98
2022-10-02T00:19:03.876Z,98.61
2022-10-02T00:21:38.516Z,98.15
2022-10-02T00:24:07.768Z,98.38
2022-10-02T00:26:39.792Z,98.93
2022-10-02T00:29:17.529Z,99.70
2022-10-02T00:31:49.444Z,98.83
2022-10-02T00:34:27.702Z,98.59
2022-10-02T00:37:00.609Z,98.99
2022-10-02T00:39:40.125Z,99.46
2022-10-02T00:42:32.401Z,99.66
2022-10-02T00:45:21.173Z,99.51
2022-10-02T00:47:54.377Z,99.20
2022-10-02T00:50:33.029Z,99.07
2022-10-02T00:53:10.184Z,99.62
2022-10-02T00:55:54.109Z,99.79
2022-10-02T00:58:49.848Z,99.97
2022-10-02T01:01:43.711Z,100.00
2022-10-02T01:04:14.725Z,100.00
2022-10-02T01:06:43.847Z,100.00
2022-10-02T01:09:12.293Z,99.80
2022-10-02T01:11:40.600Z,100.00
2022-10-02T01:14:08.705Z,99.50
2022-10-02T01:16:36.516Z,99.94
2022-10-02T01:19:04.566Z,99.65
2022-10-02T01:21:37.808Z,99.71
2022-10-02T01:24:11.089Z,99.94
2022-10-02T01:26:40.124Z,99.51
2022-10-02T01:29:07.814Z,100.00
2022-10-02T01:31:36.678Z,100.00
2022-10-02T01:34:04.584Z,100.00
2022-10-02T01:36:32.391Z,99.97
2022-10-02T01:39:00.189Z,99.25
2022-10-02T01:41:27.858Z,99.84
2022-10-02T01:43:59.288Z,99.92
2022-10-02T01:46:37.116Z,100.00
2022-10-02T01:49:24.397Z,100.00
2022-10-02T01:52:14.272Z,100.00
2022-10-02T01:54:51.649Z,100.00
2022-10-02T01:57:26.536Z,100.00
2022-10-02T02:00:06.133Z,99.61
2022-10-02T02:02:42.692Z,99.65
2022-10-02T02:05:13.309Z,98.52
2022-10-02T02:07:47.303Z,98.93
2022-10-02T02:10:19.553Z,98.73
2022-10-02T02:12:52.129Z,99.57
2022-10-02T02:15:24.752Z,99.26
2022-10-02T02:17:55.597Z,99.36
2022-10-02T02:20:26.418Z,99.30
2022-10-02T02:22:55.492Z,98.50
2022-10-02T02:25:26.508Z,98.40
2022-10-02T02:27:57.299Z,98.31
2022-10-02T02:30:26.613Z,99.16
2022-10-02T02:32:56.614Z,98.50
2022-10-02T02:35:27.228Z,99.03
2022-10-02T02:37:57.566Z,99.47
2022-10-02T02:40:28.461Z,99.18
2022-10-02T02:42:59.117Z,99.06
2022-10-02T02:45:30.441Z,99.48
2022-10-02T02:48:03.989Z,98.36
2022-10-02T02:50:34.267Z,98.27
2022-10-02T02:53:05.932Z,99.45
2022-10-02T02:55:37.605Z,99.04
2022-10-02T02:58:11.050Z,99.02
2022-10-02T03:00:40.380Z,99.59
2022-10-02T03:03:08.298Z,99.47
2022-10-02T03:05:37.356Z,99.22
2022-10-02T03:08:07.038Z,98.53
2022-10-02T03:10:42.788Z,97.89
2022-10-02T03:13:22.680Z,98.22
2022-10-02T03:16:02.425Z,97.13
2022-10-02T03:18:46.679Z,97.97
2022-10-02T03:21:16.569Z,97.50
2022-10-02T03:23:55.728Z,97.25
2022-10-02T03:26:31.880Z,95.88
2022-10-02T03:29:02.642Z,96.35
2022-10-02T03:31:33.387Z,96.36
2022-10-02T03:34:02.547Z,96.25
2022-10-02T03:36:31.056Z,96.90
2022-10-02T03:39:24.135Z,97.41
2022-10-02T03:42:06.651Z,97.00
2022-10-02T03:44:34.453Z,97.46
2022-10-02T03:47:04.019Z,97.77
2022-10-02T03:49:31.691Z,97.31
2022-10-02T03:51:59.387Z,97.57
2022-10-02T03:54:27.569Z,97.36
2022-10-02T03:56:56.871Z,97.72
2022-10-02T03:59:35.746Z,96.40
2022-10-02T04:02:08.429Z,96.69
2022-10-02T04:04:43.725Z,98.32
2022-10-02T04:07:16.058Z,99.21
2022-10-02T04:09:47.886Z,98.97
2022-10-02T04:12:17.904Z,99.44
2022-10-02T04:14:50.363Z,99.73
2022-10-02T04:17:21.892Z,98.98
2022-10-02T04:19:52.866Z,98.77
2022-10-02T04:22:27.542Z,97.94
2022-10-02T04:24:59.780Z,99.04
2022-10-02T04:27:33.765Z,98.69
2022-10-02T04:30:05.730Z,98.81
2022-10-02T04:32:37.800Z,98.38
2022-10-02T04:35:10.308Z,100.00
2022-10-02T04:38:00.141Z,99.17
2022-10-02T04:40:43.412Z,99.19
2022-10-02T04:43:24.993Z,99.43
2022-10-02T04:46:05.253Z,98.25
2022-10-02T04:49:20.860Z,97.87
2022-10-02T04:52:07.057Z,98.10
2022-10-02T04:54:44.473Z,98.73
2022-10-02T04:57:27.993Z,100.00
2022-10-02T05:00:08.921Z,100.00
2022-10-02T05:02:54.592Z,100.00
2022-10-02T05:05:28.649Z,100.00
2022-10-02T05:08:17.450Z,100.00
2022-10-02T05:11:03.861Z,100.00
2022-10-02T05:13:42.544Z,100.00
2022-10-02T05:16:20.176Z,100.00
2022-10-02T05:18:59.149Z,100.00
2022-10-02T05:21:44.980Z,100.00
2022-10-02T05:24:27.837Z,100.00
2022-10-02T05:27:10.349Z,100.00
2022-10-02T05:29:54.149Z,100.00
2022-10-02T05:33:11.604Z,100.00
2022-10-02T05:36:10.385Z,100.00
2022-10-02T05:39:07.200Z,100.00
2022-10-02T05:41:59.972Z,100.00
2022-10-02T05:44:49.649Z,100.00
2022-10-02T05:47:39.317Z,100.00
2022-10-02T05:50:28.693Z,100.00
2022-10-02T05:53:20.314Z,100.00
2022-10-02T05:56:09.518Z,100.00
2022-10-02T05:58:59.940Z,100.00
2022-10-02T06:01:48.834Z,100.00
2022-10-02T06:04:38.925Z,100.00
2022-10-02T06:07:27.805Z,100.00
2022-10-02T06:10:17.177Z,100.00
2022-10-02T06:13:09.030Z,100.00
2022-10-02T06:16:04.969Z,100.00
2022-10-02T06:18:55.390Z,100.00
2022-10-02T06:21:44.881Z,100.00
2022-10-02T06:24:35.225Z,100.00
2022-10-02T06:27:28.081Z,100.00
2022-10-02T06:30:16.433Z,100.00
2022-10-02T06:33:06.443Z,100.00
2022-10-02T06:36:15.110Z,100.00
2022-10-02T06:39:10.563Z,100.00
2022-10-02T06:42:04.961Z,100.00
2022-10-02T06:45:00.192Z,100.00
2022-10-02T06:48:06.309Z,100.00
2022-10-02T06:51:02.420Z,100.00
2022-10-02T06:54:04.136Z,100.00
2022-10-02T06:57:12.303Z,100.00
2022-10-02T07:00:09.393Z,100.00
2022-10-02T07:03:06.558Z,100.00
2022-10-02T07:06:22.243Z,100.00
2022-10-02T07:09:30.580Z,100.00
2022-10-02T07:12:33.934Z,100.00
2022-10-02T07:15:41.050Z,100.00
2022-10-02T07:18:37.199Z,100.00
2022-10-02T07:21:30.369Z,100.00
2022-10-02T07:24:32.014Z,100.00
2022-10-02T07:27:22.673Z,100.00
2022-10-02T07:30:11.364Z,100.00
2022-10-02T07:33:04.089Z,100.00
2022-10-02T07:35:56.125Z,100.00
2022-10-02T07:38:55.937Z,100.00
2022-10-02T07:42:06.374Z,100.00
2022-10-02T07:45:34.221Z,100.00
2022-10-02T07:48:35.370Z,100.00
2022-10-02T07:51:47.924Z,100.00
2022-10-02T07:55:18.772Z,100.00
2022-10-02T07:58:07.332Z,100.00
2022-10-02T08:00:58.485Z,100.00
2022-10-02T08:03:46.684Z,100.00
2022-10-02T08:06:35.093Z,100.00
2022-10-02T08:09:24.498Z,100.00
2022-10-02T08:12:22.393Z,100.00
2022-10-02T08:15:15.632Z,100.00
2022-10-02T08:18:30.008Z,100.00
2022-10-02T08:21:15.452Z,100.00
2022-10-02T08:24:06.265Z,100.00
2022-10-02T08:26:56.631Z,100.00
2022-10-02T08:29:45.977Z,100.00
2022-10-02T08:32:36.113Z,100.00
2022-10-02T08:35:23.538Z,100.00
2022-10-02T08:38:33.816Z,100.00
2022-10-02T08:41:30.410Z,100.00
2022-10-02T08:44:22.449Z,100.00
2022-10-02T08:47:16.502Z,100.00
2022-10-02T08:50:19.936Z,100.00
2022-10-02T08:53:19.249Z,100.00
2022-10-02T08:56:05.882Z,100.00
2022-10-02T08:59:05.453Z,100.00
2022-10-02T09:01:49.477Z,100.00
2022-10-02T09:04:42.260Z,100.00
2022-10-02T09:07:46.216Z,100.00
2022-10-02T09:10:49.693Z,100.00
2022-10-02T09:13:44.671Z,100.00
2022-10-02T09:16:13.864Z,100.00
2022-10-02T09:18:52.220Z,100.00
2022-10-02T09:21:20.704Z,100.00
2022-10-02T09:24:13.189Z,100.00
2022-10-02T09:27:22.341Z,100.00
2022-10-02T09:30:27.901Z,100.00
2022-10-02T09:33:16.182Z,100.00
2022-10-02T09:36:12.045Z,100.00
2022-10-02T09:39:31.039Z,100.00
2022-10-02T09:42:37.652Z,100.00
2022-10-02T09:45:37.594Z,100.00
2022-10-02T09:48:23.642Z,100.00
2022-10-02T09:51:28.361Z,100.00
2022-10-02T09:54:48.042Z,100.00
2022-10-02T09:57:44.265Z,100.00
2022-10-02T10:00:22.485Z,100.00
2022-10-02T10:03:22.537Z,97.32
2022-10-02T10:05:58.805Z,97.26
2022-10-02T10:09:04.588Z,96.21
2022-10-02T10:12:15.537Z,95.34
2022-10-02T10:15:24.129Z,94.69
2022-10-02T10:18:34.067Z,95.24
2022-10-02T10:21:59.793Z,95.92
2022-10-02T10:25:10.684Z,96.74
2022-10-02T10:28:09.381Z,96.59
2022-10-02T10:31:31.386Z,96.38
2022-10-02T10:34:48.579Z,97.19
2022-10-02T10:38:12.424Z,97.39
2022-10-02T10:41:22.852Z,97.79
2022-10-02T10:44:32.857Z,99.03
2022-10-02T10:47:26.513Z,100.00
2022-10-02T10:50:25.694Z,100.00
2022-10-02T10:53:24.774Z,100.00
2022-10-02T10:56:36.943Z,100.00
2022-10-02T10:59:57.069Z,100.00
2022-10-02T11:03:17.371Z,98.75
2022-10-02T11:06:27.320Z,98.27
2022-10-02T11:09:35.793Z,95.90
2022-10-02T11:12:39.025Z,93.86
2022-10-02T11:15:39.399Z,93.57
2022-10-02T11:18:39.913Z,92.45
2022-10-02T11:21:56.357Z,92.00
2022-10-02T11:25:03.494Z,91.57
2022-10-02T11:28:10.356Z,92.18
2022-10-02T11:31:10.041Z,92.53
2022-10-02T11:34:19.696Z,92.82
2022-10-02T11:37:17.215Z,92.70
2022-10-02T11:40:22.104Z,92.50
2022-10-02T11:43:25.666Z,93.33
2022-10-02T11:46:24.318Z,92.67
2022-10-02T11:49:32.690Z,93.09
2022-10-02T11:52:32.092Z,93.09
2022-10-02T11:55:30.061Z,93.14
2022-10-02T11:58:23.902Z,93.37
2022-10-02T12:01:17.399Z,92.70
2022-10-02T12:04:22.854Z,93.04
2022-10-02T12:07:20.741Z,93.54
2022-10-02T12:10:20.334Z,93.44
2022-10-02T12:13:21.256Z,95.07
2022-10-02T12:16:12.001Z,97.45
2022-10-02T12:19:06.469Z,96.64
2022-10-02T12:22:19.033Z,96.33
2022-10-02T12:25:37.171Z,95.51
2022-10-02T12:28:31.560Z,95.56
2022-10-02T12:31:05.198Z,95.14
2022-10-02T12:33:40.861Z,94.41
2022-10-02T12:36:35.713Z,92.93
2022-10-02T12:39:12.131Z,93.98
2022-10-02T12:41:54.512Z,93.40
2022-10-02T12:44:45.003Z,90.32
2022-10-02T12:47:49.247Z,89.59
2022-10-02T12:50:27.736Z,90.34
2022-10-02T12:53:18.398Z,90.34
2022-10-02T12:56:03.059Z,90.86
2022-10-02T12:58:42.090Z,88.70
2022-10-02T13:01:49.885Z,87.85
2022-10-02T13:04:37.943Z,86.90
2022-10-02T13:07:42.543Z,87.02
2022-10-02T13:10:16.433Z,87.14
2022-10-02T13:12:56.357Z,85.89
2022-10-02T13:15:35.752Z,87.02
2022-10-02T13:18:17.594Z,85.98
2022-10-02T13:20:50.211Z,87.01
2022-10-02T13:23:25.440Z,88.73
2022-10-02T13:26:00.658Z,91.04
2022-10-02T13:28:49.122Z,90.73
2022-10-02T13:31:26.865Z,90.39
2022-10-02T13:34:05.357Z,88.75
2022-10-02T13:36:41.316Z,89.43
2022-10-02T13:39:20.842Z,89.70
2022-10-02T13:41:59.838Z,89.12
2022-10-02T13:44:35.577Z,88.98
2022-10-02T13:47:18.697Z,89.34
2022-10-02T13:49:58.230Z,88.92
2022-10-02T13:52:33.472Z,86.71
2022-10-02T13:55:12.719Z,86.57
2022-10-02T13:57:49.926Z,84.39
2022-10-02T14:00:24.186Z,84.57
2022-10-02T14:03:05.836Z,84.82
2022-10-02T14:05:38.937Z,84.33
2022-10-02T14:08:16.283Z,84.14
2022-10-02T14:10:54.068Z,83.60
2022-10-02T14:13:34.813Z,84.26
2022-10-02T14:16:15.901Z,84.66
2022-10-02T14:19:00.964Z,84.51
2022-10-02T14:21:32.646Z,85.08
2022-10-02T14:24:20.498Z,85.05
2022-10-02T14:26:57.741Z,85.31
2022-10-02T14:29:39.059Z,85.34
2022-10-02T14:32:27.715Z,85.84
2022-10-02T14:35:25.715Z,85.40
2022-10-02T14:38:22.949Z,84.37
2022-10-02T14:40:53.268Z,83.98
2022-10-02T14:43:39.485Z,83.17
2022-10-02T14:46:20.932Z,82.93
2022-10-02T14:49:12.790Z,83.33
2022-10-02T14:52:00.438Z,82.73
2022-10-02T14:54:41.624Z,82.87
2022-10-02T14:57:29.827Z,83.02
2022-10-02T15:00:06.894Z,83.24
2022-10-02T15:02:57.377Z,82.78
2022-10-02T15:05:39.089Z,82.67
2022-10-02T15:08:14.340Z,82.80
2022-10-02T15:10:43.485Z,83.03
2022-10-02T15:13:15.931Z,83.49
2022-10-02T15:15:48.010Z,83.04
2022-10-02T15:18:25.652Z,82.33
2022-10-02T15:20:59.497Z,82.72
2022-10-02T15:23:46.115Z,82.88
2022-10-02T15:26:33.785Z,83.01
2022-10-02T15:29:11.604Z,82.82
2022-10-02T15:31:44.213Z,83.07
2022-10-02T15:34:21.555Z,81.70
2022-10-02T15:37:05.204Z,82.72
2022-10-02T15:39:45.166Z,82.20
2022-10-02T15:42:17.416Z,83.29
2022-10-02T15:45:07.716Z,83.28
2022-10-02T15:47:49.767Z,83.22
2022-10-02T15:50:28.147Z,83.14
2022-10-02T15:53:08.238Z,83.23
2022-10-02T15:55:45.799Z,83.29
2022-10-02T15:58:24.400Z,82.97
2022-10-02T16:01:08.751Z,83.59
2022-10-02T16:03:44.727Z,83.97
2022-10-02T16:06:20.834Z,83.20
2022-10-02T16:09:10.477Z,83.87
2022-10-02T16:11:52.743Z,83.98
2022-10-02T16:14:28.771Z,85.16
2022-10-02T16:17:14.262Z,84.43
2022-10-02T16:19:54.127Z,84.72
2022-10-02T16:22:31.415Z,84.96
2022-10-02T16:25:14.117Z,84.78
2022-10-02T16:28:05.897Z,84.67
2022-10-02T16:30:39.900Z,84.87
2022-10-02T16:33:20.498Z,85.01
2022-10-02T16:36:10.519Z,86.42
2022-10-02T16:38:48.697Z,86.08
2022-10-02T16:41:31.045Z,86.10
2022-10-02T16:44:10.921Z,86.49
2022-10-02T16:46:44.110Z,86.57
2022-10-02T16:49:21.710Z,86.98
2022-10-02T16:51:56.475Z,87.71
2022-10-02T16:54:28.463Z,86.97
2022-10-02T16:56:59.518Z,87.56
2022-10-02T16:59:31.433Z,87.52
2022-10-02T17:02:17.442Z,87.60
2022-10-02T17:04:55.316Z,87.73
2022-10-02T17:07:35.214Z,86.88
2022-10-02T17:10:09.121Z,87.87
2022-10-02T17:12:46.717Z,87.87
2022-10-02T17:15:22.961Z,88.22
2022-10-02T17:18:14.597Z,88.09
2022-10-02T17:20:44.802Z,88.24
2022-10-02T17:23:17.871Z,88.83
2022-10-02T17:25:51.741Z,88.68
2022-10-02T17:28:23.324Z,88.96
2022-10-02T17:31:06.343Z,89.46
2022-10-02T17:33:45.408Z,88.96
2022-10-02T17:36:19.468Z,89.00
2022-10-02T17:39:07.144Z,88.48
2022-10-02T17:41:47.087Z,89.17
2022-10-02T17:44:27.202Z,88.89
2022-10-02T17:47:23.662Z,89.69
2022-10-02T17:50:01.674Z,90.29
2022-10-02T17:52:53.768Z,90.41
2022-10-02T17:55:52.373Z,89.73
2022-10-02T17:58:25.525Z,90.51
2022-10-02T18:01:06.046Z,90.19
2022-10-02T18:03:59.829Z,90.18
2022-10-02T18:06:37.970Z,89.81
2022-10-02T18:09:18.091Z,90.33
2022-10-02T18:11:59.357Z,90.37
2022-10-02T18:14:48.144Z,89.30
2022-10-02T18:17:21.930Z,89.06
2022-10-02T18:19:56.735Z,89.47
2022-10-02T18:22:34.098Z,90.76
2022-10-02T18:25:14.193Z,90.52
2022-10-02T18:28:19.116Z,89.37
2022-10-02T18:30:50.104Z,89.70
2022-10-02T18:33:56.848Z,90.47
2022-10-02T18:36:37.100Z,90.68
2022-10-02T18:39:13.677Z,90.98
2022-10-02T18:41:53.476Z,90.74
2022-10-02T18:44:38.681Z,89.80
2022-10-02T18:47:12.195Z,89.79
2022-10-02T18:49:48.820Z,90.04
2022-10-02T18:52:58.092Z,90.06
2022-10-02T18:56:03.145Z,90.03
2022-10-02T18:58:47.627Z,89.45
2022-10-02T19:01:36.771Z,89.44
2022-10-02T19:04:48.907Z,89.23
2022-10-02T19:07:19.215Z,89.52
2022-10-02T19:09:47.660Z,89.29
2022-10-02T19:12:18.886Z,90.17
2022-10-02T19:14:46.905Z,90.19
2022-10-02T19:17:17.792Z,91.07
2022-10-02T19:19:45.608Z,90.86
2022-10-02T19:22:19.995Z,90.50
2022-10-02T19:24:49.388Z,90.99
2022-10-02T19:27:24.069Z,90.16
2022-10-02T19:29:56.257Z,89.60
2022-10-02T19:32:27.270Z,90.31
2022-10-02T19:35:01.433Z,90.10
2022-10-02T19:37:29.662Z,90.36
2022-10-02T19:40:00.513Z,89.71
2022-10-02T19:42:31.908Z,90.76
2022-10-02T19:45:02.846Z,89.40
2022-10-02T19:47:33.889Z,89.80
2022-10-02T19:50:04.102Z,89.69
2022-10-02T19:52:36.899Z,89.71
2022-10-02T19:55:07.229Z,89.43
2022-10-02T19:57:40.040Z,89.81
2022-10-02T20:00:15.426Z,89.92
2022-10-02T20:02:46.337Z,90.09
2022-10-02T20:05:20.502Z,89.78
2022-10-02T20:07:49.468Z,90.11
2022-10-02T20:10:22.145Z,89.99
2022-10-02T20:12:55.293Z,90.26
2022-10-02T20:15:39.292Z,90.14
2022-10-02T20:18:08.081Z,89.90
2022-10-02T20:20:37.122Z,91.83
2022-10-02T20:23:08.616Z,90.11
2022-10-02T20:25:39.684Z,90.78
2022-10-02T20:28:15.129Z,91.44
2022-10-02T20:30:47.004Z,91.23
2022-10-02T20:33:19.064Z,92.51
2022-10-02T20:35:50.642Z,92.43
2022-10-02T20:38:22.073Z,92.13
2022-10-02T20:40:53.326Z,91.25
2022-10-02T20:43:25.883Z,91.93
2022-10-02T20:46:04.911Z,89.79
2022-10-02T20:49:07.905Z,91.86
2022-10-02T20:51:57.051Z,92.02
2022-10-02T20:54:32.930Z,91.91
2022-10-02T20:57:43.453Z,91.16
2022-10-02T21:00:20.806Z,91.44
2022-10-02T21:03:18.519Z,93.21
2022-10-02T21:06:16.064Z,92.77
2022-10-02T21:08:59.957Z,91.64
2022-10-02T21:11:35.666Z,92.60
2022-10-02T21:14:41.481Z,92.80
2022-10-02T21:17:33.360Z,92.45
2022-10-02T21:20:51.132Z,92.69
2022-10-02T21:23:34.429Z,92.96
2022-10-02T21:26:26.982Z,93.08
2022-10-02T21:29:15.943Z,92.71
2022-10-02T21:31:52.154Z,93.61
2022-10-02T21:34:31.862Z,92.75
2022-10-02T21:37:00.710Z,92.73
2022-10-02T21:43:06.645Z,93.62
2022-10-02T21:45:58.432Z,94.09
2022-10-02T21:49:05.204Z,93.96
2022-10-02T21:51:51.061Z,92.60
2022-10-02T21:54:44.914Z,93.58
2022-10-02T21:57:29.392Z,93.83
2022-10-02T22:00:09.577Z,94.05
2022-10-02T22:03:13.952Z,93.57
2022-10-02T22:06:05.348Z,92.69
2022-10-02T22:08:43.928Z,92.93
2022-10-02T22:11:15.809Z,94.94
2022-10-02T22:13:44.331Z,93.98
2022-10-02T22:16:22.123Z,94.40
2022-10-02T22:18:52.157Z,93.94
2022-10-02T22:21:36.631Z,94.54
2022-10-02T22:24:20.221Z,94.75
2022-10-02T22:27:03.472Z,94.90
2022-10-02T22:29:44.797Z,94.16
2022-10-02T22:32:46.801Z,94.21
2022-10-02T22:35:25.569Z,94.12
2022-10-02T22:38:06.113Z,94.01
2022-10-02T22:40:45.682Z,95.33
2022-10-02T22:43:19.197Z,94.25
2022-10-02T22:45:49.809Z,94.53
2022-10-02T22:48:25.866Z,94.33
2022-10-02T22:50:56.706Z,94.14
2022-10-02T22:53:28.380Z,94.84
2022-10-02T22:55:58.471Z,94.39
2022-10-02T22:58:33.713Z,93.28
2022-10-02T23:01:07.696Z,94.19
2022-10-02T23:03:40.938Z,93.31
2022-10-02T23:06:15.296Z,93.42
2022-10-02T23:08:48.058Z,94.55
2022-10-02T23:11:20.813Z,94.53
2022-10-02T23:13:51.968Z,95.37
2022-10-02T23:16:25.159Z,96.51
2022-10-02T23:18:58.941Z,94.86
2022-10-02T23:21:32.603Z,95.01
2022-10-02T23:24:05.645Z,96.33
2022-10-02T23:26:38.154Z,95.72
2022-10-02T23:29:26.905Z,95.17
2022-10-02T23:31:59.238Z,96.19
2022-10-02T23:34:36.021Z,96.71
2022-10-02T23:37:15.177Z,96.02
2022-10-02T23:39:48.492Z,96.01
2022-10-02T23:42:21.492Z,96.61
2022-10-02T23:44:55.735Z,97.39
2022-10-02T23:47:31.046Z,97.37
2022-10-02T23:49:59.853Z,96.85
2022-10-02T23:52:43.354Z,97.67
2022-10-02T23:55:27.358Z,96.79
2022-10-02T23:58:23.713Z,96.61
